Time;durP1;ratioP1;P1;durP2;ratioP2;P2;SDS_P1;SDS_P2;PMS_P1;PMS_P2;Temp;Humidity;BMP_temperature;BMP_pressure;BME280_temperature;BME280_humidity;BME280_pressure;Samples;Min_cycle;Max_cycle;Signal;HPM_P1;HPM_P2
2021/01/16 00:00:18;;;;;;;30.10;14.15;;;1.50;91.80;;;;;;5032049;28;20482;-96
2021/01/16 00:02:43;;;;;;;25.70;13.07;;;1.50;91.90;;;;;;5039732;28;20029;-95
2021/01/16 00:05:09;;;;;;;23.05;13.48;;;1.50;91.90;;;;;;5033076;28;20437;-95
2021/01/16 00:07:35;;;;;;;25.90;12.80;;;1.50;91.90;;;;;;5052001;28;20033;-95
2021/01/16 00:10:00;;;;;;;24.45;13.25;;;1.50;91.80;;;;;;5051579;28;20034;-96
2021/01/16 00:12:26;;;;;;;20.95;11.45;;;1.50;91.80;;;;;;5052366;28;20076;-94
2021/01/16 00:14:51;;;;;;;25.65;14.02;;;1.50;91.80;;;;;;5035340;28;20029;-95
2021/01/16 00:17:17;;;;;;;22.25;12.63;;;1.50;91.80;;;;;;5025133;28;20017;-96
2021/01/16 00:19:42;;;;;;;26.00;13.52;;;1.60;91.80;;;;;;5035875;28;20067;-96
2021/01/16 00:22:08;;;;;;;25.05;13.75;;;1.60;91.70;;;;;;5034614;28;20017;-94
2021/01/16 00:24:33;;;;;;;22.20;12.55;;;1.60;91.70;;;;;;5026872;28;20128;-95
2021/01/16 00:26:59;;;;;;;22.00;11.25;;;1.60;91.70;;;;;;5028727;28;20133;-96
2021/01/16 00:29:24;;;;;;;22.75;12.55;;;1.60;91.60;;;;;;5023863;28;20069;-95
2021/01/16 00:31:50;;;;;;;24.50;12.82;;;1.60;91.50;;;;;;5026259;28;20053;-96
2021/01/16 00:34:15;;;;;;;22.30;12.38;;;1.60;91.40;;;;;;5026408;28;20441;-94
2021/01/16 00:36:41;;;;;;;21.42;12.75;;;1.60;91.40;;;;;;5022634;28;20014;-93
2021/01/16 00:39:07;;;;;;;24.00;13.00;;;1.70;91.30;;;;;;5047528;28;20482;-96
2021/01/16 00:41:33;;;;;;;23.35;12.38;;;1.70;91.30;;;;;;5052274;28;20159;-96
2021/01/16 00:43:58;;;;;;;24.83;13.98;;;1.60;91.30;;;;;;5031401;28;20486;-95
2021/01/16 00:46:24;;;;;;;22.95;11.60;;;1.60;91.30;;;;;;5031676;28;20040;-96
2021/01/16 00:48:49;;;;;;;25.25;13.55;;;1.60;91.30;;;;;;5043929;28;20040;-95
2021/01/16 00:51:15;;;;;;;22.15;11.98;;;1.50;91.30;;;;;;5025788;28;20478;-96
2021/01/16 00:53:40;;;;;;;22.63;13.05;;;1.50;91.30;;;;;;5030128;28;20037;-95
2021/01/16 00:56:06;;;;;;;29.35;12.65;;;1.50;91.30;;;;;;5034522;28;20044;-95
2021/01/16 00:58:31;;;;;;;27.42;14.43;;;1.50;91.40;;;;;;5034965;28;20028;-95
2021/01/16 01:00:57;;;;;;;23.33;12.95;;;1.50;91.40;;;;;;5034152;28;20018;-96
2021/01/16 01:03:23;;;;;;;24.45;13.35;;;1.50;91.40;;;;;;5017483;28;20030;-95
2021/01/16 01:05:49;;;;;;;28.42;15.23;;;1.50;91.40;;;;;;5046112;28;20037;-96
2021/01/16 01:08:15;;;;;;;27.30;13.85;;;1.50;91.40;;;;;;5035921;28;20505;-95
2021/01/16 01:10:46;;;;;;;23.92;12.60;;;1.50;91.40;;;;;;5043510;28;20052;-95
2021/01/16 01:13:12;;;;;;;23.88;12.65;;;1.50;91.40;;;;;;5037226;28;20017;-95
2021/01/16 01:15:38;;;;;;;24.67;12.40;;;1.50;91.40;;;;;;5035582;28;20026;-95
2021/01/16 01:18:04;;;;;;;24.80;13.18;;;1.50;91.40;;;;;;5034858;28;20044;-95
2021/01/16 01:20:30;;;;;;;21.70;11.45;;;1.50;91.40;;;;;;5031737;28;20474;-96
2021/01/16 01:22:57;;;;;;;25.33;14.05;;;1.50;91.40;;;;;;5033821;28;20112;-96
2021/01/16 01:25:23;;;;;;;23.02;11.70;;;1.50;91.40;;;;;;5042704;28;20025;-96
2021/01/16 01:27:57;;;;;;;23.17;12.32;;;1.50;91.40;;;;;;5033676;28;20025;-96
2021/01/16 01:30:25;;;;;;;24.15;12.43;;;1.50;91.30;;;;;;5033444;28;20072;-96
2021/01/16 01:32:51;;;;;;;24.05;12.70;;;1.50;91.30;;;;;;5031400;28;20021;-95
2021/01/16 01:35:18;;;;;;;21.38;11.30;;;1.50;91.40;;;;;;5026835;28;20026;-95
2021/01/16 01:37:48;;;;;;;20.05;11.20;;;1.50;91.40;;;;;;5032233;28;20029;-95
2021/01/16 01:40:16;;;;;;;18.13;10.30;;;1.50;91.30;;;;;;5032014;28;20120;-96
2021/01/16 01:42:42;;;;;;;22.88;12.05;;;1.50;91.30;;;;;;5030809;28;20029;-93
2021/01/16 01:45:09;;;;;;;22.27;11.77;;;1.60;91.20;;;;;;5038435;28;20093;-96
2021/01/16 01:47:36;;;;;;;22.08;11.27;;;1.50;91.10;;;;;;5056125;28;20025;-95
2021/01/16 01:50:04;;;;;;;21.08;11.30;;;1.50;91.10;;;;;;5031695;28;20033;-95
2021/01/16 01:52:30;;;;;;;18.10;9.73;;;1.50;91.00;;;;;;5037203;28;20028;-95
2021/01/16 01:54:57;;;;;;;21.40;10.85;;;1.50;91.00;;;;;;5031449;28;20026;-96
2021/01/16 01:57:25;;;;;;;19.63;10.20;;;1.50;91.00;;;;;;5031934;28;20025;-96
2021/01/16 01:59:53;;;;;;;21.83;10.48;;;1.50;91.00;;;;;;5022211;28;20033;-94
2021/01/16 02:02:21;;;;;;;21.30;10.63;;;1.50;90.90;;;;;;5025478;28;20026;-95
2021/01/16 02:04:49;;;;;;;20.40;10.95;;;1.50;90.80;;;;;;5050230;28;20017;-95
2021/01/16 02:07:29;;;;;;;18.17;11.02;;;1.50;90.80;;;;;;5026787;28;20033;-95
2021/01/16 02:09:55;;;;;;;19.33;10.82;;;1.50;90.70;;;;;;5047984;28;20029;-96
2021/01/16 02:12:22;;;;;;;22.67;11.35;;;1.50;90.70;;;;;;5043896;28;20077;-96
2021/01/16 02:15:10;;;;;;;19.92;10.18;;;1.50;90.70;;;;;;5028603;28;20029;-96
2021/01/16 02:17:40;;;;;;;20.02;10.93;;;1.60;90.70;;;;;;5035282;28;20074;-95
2021/01/16 02:20:09;;;;;;;17.63;9.48;;;1.50;90.70;;;;;;5037523;28;20021;-96
2021/01/16 02:22:56;;;;;;;22.98;11.23;;;1.50;90.70;;;;;;5041494;28;20036;-96
2021/01/16 02:25:41;;;;;;;21.00;11.95;;;1.60;90.70;;;;;;5050338;28;20032;-95
2021/01/16 02:28:09;;;;;;;21.45;12.20;;;1.60;90.70;;;;;;5031192;28;20088;-94
2021/01/16 02:30:36;;;;;;;21.05;11.35;;;1.50;90.60;;;;;;5019158;28;20376;-96
2021/01/16 02:33:05;;;;;;;22.70;10.75;;;1.60;90.60;;;;;;5036284;28;20018;-95
2021/01/16 02:35:34;;;;;;;20.45;9.82;;;1.60;90.60;;;;;;5034342;28;20037;-96
2021/01/16 02:38:04;;;;;;;20.55;11.18;;;1.60;90.60;;;;;;5029585;28;20022;-96
2021/01/16 02:40:40;;;;;;;19.63;10.70;;;1.60;90.60;;;;;;5031474;28;20483;-95
2021/01/16 02:43:34;;;;;;;20.58;11.85;;;1.60;90.60;;;;;;5036697;28;20022;-95
2021/01/16 02:46:42;;;;;;;21.95;10.57;;;1.60;90.60;;;;;;5030116;28;20026;-95
2021/01/16 02:49:20;;;;;;;21.48;11.48;;;1.60;90.50;;;;;;5029935;28;20038;-95
2021/01/16 02:52:06;;;;;;;20.23;11.68;;;1.50;90.60;;;;;;5034576;28;20049;-95
2021/01/16 02:54:37;;;;;;;20.65;11.10;;;1.60;90.60;;;;;;5033407;28;20025;-94
2021/01/16 02:57:05;;;;;;;22.27;11.43;;;1.60;90.50;;;;;;5033023;28;20063;-94
2021/01/16 02:59:34;;;;;;;20.00;11.05;;;1.60;90.50;;;;;;5033146;28;20026;-94
2021/01/16 03:02:00;;;;;;;21.35;11.88;;;1.60;90.50;;;;;;5036822;28;20026;-94
2021/01/16 03:04:26;;;;;;;21.10;12.00;;;1.60;90.50;;;;;;5053201;28;20171;-95
2021/01/16 03:06:52;;;;;;;17.60;10.25;;;1.60;90.50;;;;;;5027609;28;20057;-95
2021/01/16 03:09:18;;;;;;;22.10;12.48;;;1.60;90.50;;;;;;5035772;28;20042;-94
2021/01/16 03:11:45;;;;;;;24.40;12.40;;;1.60;90.50;;;;;;5030676;28;20026;-94
2021/01/16 03:14:12;;;;;;;20.30;11.18;;;1.60;90.50;;;;;;5029409;28;20025;-94
2021/01/16 03:16:50;;;;;;;21.60;11.73;;;1.60;90.50;;;;;;5035666;28;20032;-95
2021/01/16 03:19:23;;;;;;;19.52;10.43;;;1.60;90.50;;;;;;5028466;28;20052;-95
2021/01/16 03:21:49;;;;;;;22.90;11.82;;;1.60;90.50;;;;;;5037946;28;20026;-95
2021/01/16 03:24:14;;;;;;;21.63;11.35;;;1.60;90.50;;;;;;5036065;28;20064;-94
2021/01/16 03:26:40;;;;;;;21.15;11.43;;;1.60;90.50;;;;;;5036061;28;20029;-94
2021/01/16 03:29:05;;;;;;;24.42;11.73;;;1.60;90.50;;;;;;5029213;28;20056;-95
2021/01/16 03:31:31;;;;;;;22.70;11.40;;;1.60;90.50;;;;;;5031992;28;20021;-95
2021/01/16 03:33:56;;;;;;;23.13;12.68;;;1.60;90.40;;;;;;5036197;28;20404;-95
2021/01/16 03:36:22;;;;;;;21.48;12.85;;;1.50;90.40;;;;;;5035458;28;20036;-95
2021/01/16 03:38:47;;;;;;;24.92;12.27;;;1.50;90.40;;;;;;5041322;28;20040;-94
2021/01/16 03:41:13;;;;;;;23.70;12.75;;;1.50;90.40;;;;;;5033772;28;20032;-94
2021/01/16 03:43:38;;;;;;;24.13;12.90;;;1.50;90.50;;;;;;5034459;28;20048;-94
2021/01/16 03:46:04;;;;;;;24.52;12.88;;;1.50;90.50;;;;;;5018760;28;20025;-95
2021/01/16 03:48:31;;;;;;;21.15;11.82;;;1.50;90.50;;;;;;5025539;28;20041;-95
2021/01/16 03:50:56;;;;;;;24.25;12.65;;;1.50;90.50;;;;;;5028309;28;20425;-94
2021/01/16 03:53:22;;;;;;;22.45;11.68;;;1.50;90.50;;;;;;5033532;28;20030;-94
2021/01/16 03:55:47;;;;;;;23.60;12.20;;;1.50;90.50;;;;;;5035628;28;20111;-94
2021/01/16 03:58:13;;;;;;;25.95;13.57;;;1.50;90.50;;;;;;5040820;28;20409;-94
2021/01/16 04:00:38;;;;;;;22.90;11.80;;;1.50;90.50;;;;;;5025999;28;20022;-94
2021/01/16 04:03:04;;;;;;;23.10;12.23;;;1.50;90.50;;;;;;5025415;28;20109;-94
2021/01/16 04:05:30;;;;;;;27.20;13.95;;;1.50;90.50;;;;;;5035345;28;20025;-94
2021/01/16 04:07:55;;;;;;;24.33;13.35;;;1.50;90.50;;;;;;5031702;28;20029;-94
2021/01/16 04:10:21;;;;;;;27.38;14.82;;;1.50;90.40;;;;;;5036943;28;20033;-93
2021/01/16 04:12:46;;;;;;;24.30;12.90;;;1.40;90.40;;;;;;5034825;28;20022;-93
2021/01/16 04:15:12;;;;;;;26.15;13.02;;;1.40;90.40;;;;;;5024982;28;20040;-94
2021/01/16 04:17:38;;;;;;;24.60;13.18;;;1.40;90.50;;;;;;5043448;28;20028;-94
2021/01/16 04:20:04;;;;;;;25.08;13.07;;;1.40;90.50;;;;;;5034738;28;20556;-95
2021/01/16 04:22:35;;;;;;;21.30;11.82;;;1.40;90.60;;;;;;5034979;28;20115;-94
2021/01/16 04:25:00;;;;;;;23.58;12.13;;;1.40;90.60;;;;;;5034497;28;20018;-94
2021/01/16 04:27:26;;;;;;;22.08;11.70;;;1.40;90.60;;;;;;5035006;28;20037;-94
2021/01/16 04:29:51;;;;;;;22.50;12.20;;;1.40;90.60;;;;;;5034846;28;20055;-95
2021/01/16 04:32:17;;;;;;;24.55;13.00;;;1.50;90.60;;;;;;5039877;28;20026;-94
2021/01/16 04:34:42;;;;;;;24.90;13.40;;;1.40;90.60;;;;;;5034460;28;20486;-95
2021/01/16 04:37:08;;;;;;;27.05;14.32;;;1.50;90.60;;;;;;5034694;28;20025;-93
2021/01/16 04:39:33;;;;;;;26.05;13.32;;;1.40;90.50;;;;;;5051285;28;20036;-95
2021/01/16 04:42:02;;;;;;;25.42;13.50;;;1.40;90.50;;;;;;5025845;28;20100;-93
2021/01/16 04:44:33;;;;;;;25.83;12.43;;;1.40;90.60;;;;;;5035173;28;20030;-95
2021/01/16 04:46:59;;;;;;;24.77;12.70;;;1.40;90.60;;;;;;5049964;28;20040;-95
2021/01/16 04:49:26;;;;;;;23.20;13.65;;;1.40;90.60;;;;;;5020159;28;20503;-94
2021/01/16 04:51:53;;;;;;;28.15;12.68;;;1.40;90.70;;;;;;5034769;28;20022;-94
2021/01/16 04:54:18;;;;;;;28.60;12.50;;;1.30;90.70;;;;;;5033636;28;20064;-96
2021/01/16 04:56:48;;;;;;;28.27;13.30;;;1.40;90.70;;;;;;5032621;28;20502;-93
2021/01/16 04:59:13;;;;;;;26.25;14.18;;;1.40;90.70;;;;;;5034291;28;20037;-94
2021/01/16 05:01:39;;;;;;;23.90;13.30;;;1.40;90.70;;;;;;5028865;28;20021;-95
2021/01/16 05:04:07;;;;;;;21.85;11.88;;;1.40;90.70;;;;;;5030013;28;20028;-94
2021/01/16 05:06:38;;;;;;;27.60;14.45;;;1.40;90.70;;;;;;5043811;28;20021;-94
2021/01/16 05:09:04;;;;;;;24.27;13.57;;;1.40;90.80;;;;;;5033653;28;20050;-95
2021/01/16 05:11:32;;;;;;;25.33;13.25;;;1.40;90.80;;;;;;5030799;28;20018;-94
2021/01/16 05:14:11;;;;;;;26.05;13.02;;;1.40;90.80;;;;;;5030171;28;20029;-94
2021/01/16 05:16:48;;;;;;;25.80;12.63;;;1.40;90.80;;;;;;5032272;28;20013;-94
2021/01/16 05:19:15;;;;;;;24.13;12.63;;;1.40;90.80;;;;;;5033746;28;20350;-95
2021/01/16 05:21:42;;;;;;;22.52;12.13;;;1.40;90.70;;;;;;5032883;28;20112;-94
2021/01/16 05:24:08;;;;;;;25.08;13.23;;;1.40;90.70;;;;;;5017136;28;20026;-94
2021/01/16 05:26:53;;;;;;;25.25;12.68;;;1.40;90.70;;;;;;5033691;28;20029;-94
2021/01/16 05:29:22;;;;;;;23.17;11.88;;;1.40;90.70;;;;;;5030609;28;20056;-94
2021/01/16 05:31:48;;;;;;;22.65;12.70;;;1.50;90.70;;;;;;5027543;28;20014;-94
2021/01/16 05:34:14;;;;;;;25.95;13.95;;;1.50;90.70;;;;;;5024337;28;20044;-94
2021/01/16 05:36:45;;;;;;;23.38;12.70;;;1.50;90.70;;;;;;5022341;28;20022;-95
2021/01/16 05:39:13;;;;;;;24.50;13.05;;;1.50;90.70;;;;;;5031689;28;20053;-94
2021/01/16 05:41:40;;;;;;;23.35;13.02;;;1.40;90.70;;;;;;5031691;28;20029;-95
2021/01/16 05:44:06;;;;;;;24.30;13.43;;;1.50;90.70;;;;;;5033358;28;20025;-95
2021/01/16 05:46:32;;;;;;;26.20;13.20;;;1.50;90.70;;;;;;5029674;28;20029;-95
2021/01/16 05:48:58;;;;;;;24.23;13.13;;;1.40;90.60;;;;;;5025956;28;20071;-95
2021/01/16 05:51:24;;;;;;;19.77;11.73;;;1.40;90.70;;;;;;5024144;28;20068;-94
2021/01/16 05:53:50;;;;;;;26.13;13.45;;;1.40;90.70;;;;;;5018851;28;20018;-94
2021/01/16 05:56:16;;;;;;;23.27;12.88;;;1.40;90.70;;;;;;5031435;28;20033;-94
2021/01/16 05:58:44;;;;;;;26.33;13.20;;;1.40;90.70;;;;;;5020365;28;20364;-93
2021/01/16 06:01:24;;;;;;;22.30;12.55;;;1.40;90.70;;;;;;5033982;28;20048;-96
2021/01/16 06:03:51;;;;;;;24.55;13.15;;;1.40;90.70;;;;;;5052433;28;20013;-95
2021/01/16 06:06:18;;;;;;;28.13;14.10;;;1.40;90.70;;;;;;5039452;28;20057;-95
2021/01/16 06:08:50;;;;;;;23.70;13.27;;;1.40;90.70;;;;;;5022490;28;20033;-94
2021/01/16 06:11:16;;;;;;;20.85;11.95;;;1.30;90.70;;;;;;5033589;28;20091;-94
2021/01/16 06:13:43;;;;;;;26.50;14.18;;;1.30;90.70;;;;;;5028947;28;20034;-95
2021/01/16 06:16:16;;;;;;;26.30;13.93;;;1.40;90.80;;;;;;5028685;28;20056;-96
2021/01/16 06:18:55;;;;;;;23.02;12.88;;;1.40;90.80;;;;;;5026311;28;20064;-94
2021/01/16 06:21:30;;;;;;;25.63;13.90;;;1.40;90.80;;;;;;5046148;28;20030;-95
2021/01/16 06:23:58;;;;;;;27.90;13.25;;;1.30;90.80;;;;;;5027855;28;20102;-95
2021/01/16 06:26:24;;;;;;;25.15;13.20;;;1.40;90.80;;;;;;5013261;28;20036;-94
2021/01/16 06:28:58;;;;;;;23.33;12.15;;;1.40;90.80;;;;;;5014541;28;20038;-95
2021/01/16 06:31:29;;;;;;;23.65;13.60;;;1.30;90.70;;;;;;5030772;28;20034;-95
2021/01/16 06:34:00;;;;;;;25.17;13.27;;;1.30;90.80;;;;;;5031354;28;20025;-96
2021/01/16 06:36:28;;;;;;;29.50;15.15;;;1.30;90.80;;;;;;5025367;28;20087;-96
2021/01/16 06:39:06;;;;;;;23.38;13.52;;;1.30;90.80;;;;;;5033085;28;20029;-95
2021/01/16 06:41:34;;;;;;;26.30;14.73;;;1.30;90.80;;;;;;5048204;28;20025;-94
2021/01/16 06:44:00;;;;;;;22.33;13.32;;;1.30;90.80;;;;;;5032360;28;20025;-94
2021/01/16 06:46:48;;;;;;;24.83;12.57;;;1.30;90.80;;;;;;5033511;28;20030;-93
2021/01/16 06:49:22;;;;;;;26.13;13.05;;;1.30;90.80;;;;;;5031606;28;20029;-95
2021/01/16 06:51:52;;;;;;;28.40;14.38;;;1.30;90.80;;;;;;5044995;28;20037;-94
2021/01/16 06:54:38;;;;;;;24.13;13.13;;;1.30;90.80;;;;;;5029888;28;20033;-95
2021/01/16 06:57:08;;;;;;;27.13;13.70;;;1.30;90.80;;;;;;5033912;28;20030;-95
2021/01/16 06:59:36;;;;;;;23.50;12.93;;;1.30;90.80;;;;;;5049286;28;20022;-95
2021/01/16 07:02:23;;;;;;;25.33;13.85;;;1.40;90.80;;;;;;5026808;28;20028;-95
2021/01/16 07:04:53;;;;;;;28.02;13.30;;;1.30;90.80;;;;;;5023160;28;20033;-94
2021/01/16 07:07:29;;;;;;;26.88;13.25;;;1.30;90.80;;;;;;5031086;28;20021;-93
2021/01/16 07:10:05;;;;;;;26.85;13.50;;;1.30;90.80;;;;;;5047672;28;20041;-95
2021/01/16 07:12:30;;;;;;;27.13;14.90;;;1.30;90.90;;;;;;5037780;28;20386;-96
2021/01/16 07:14:56;;;;;;;29.50;14.82;;;1.30;90.80;;;;;;5026723;28;20026;-95
2021/01/16 07:17:24;;;;;;;26.30;13.55;;;1.30;90.80;;;;;;5048087;28;20113;-96
2021/01/16 07:19:50;;;;;;;29.52;14.45;;;1.30;90.80;;;;;;5025068;28;20034;-94
2021/01/16 07:22:17;;;;;;;26.63;14.30;;;1.30;90.90;;;;;;5029961;28;20061;-93
2021/01/16 07:24:44;;;;;;;28.08;14.38;;;1.30;90.90;;;;;;5031073;28;20052;-94
2021/01/16 07:27:13;;;;;;;23.98;12.77;;;1.30;90.80;;;;;;5031950;28;20436;-91
2021/01/16 07:29:42;;;;;;;25.27;14.25;;;1.20;90.80;;;;;;5030062;28;20132;-94
2021/01/16 07:32:14;;;;;;;27.08;14.10;;;1.30;90.90;;;;;;5014521;28;20049;-94
2021/01/16 07:34:48;;;;;;;25.67;13.45;;;1.30;90.90;;;;;;5031536;28;20084;-94
2021/01/16 07:37:15;;;;;;;27.23;14.38;;;1.30;91.20;;;;;;5034152;28;20061;-94
2021/01/16 07:39:43;;;;;;;26.38;14.02;;;1.30;90.90;;;;;;5018959;28;20026;-93
2021/01/16 07:42:14;;;;;;;27.45;13.60;;;1.30;90.90;;;;;;5049994;28;20489;-94
2021/01/16 07:44:42;;;;;;;24.85;13.43;;;1.30;90.90;;;;;;5034879;28;20034;-95
2021/01/16 07:47:21;;;;;;;26.88;14.38;;;1.30;90.90;;;;;;5032930;28;20045;-95
2021/01/16 07:49:57;;;;;;;22.48;13.27;;;1.30;90.90;;;;;;5046951;28;20124;-95
2021/01/16 07:52:25;;;;;;;23.92;13.07;;;1.30;90.80;;;;;;5034894;28;20440;-94
2021/01/16 07:55:04;;;;;;;28.23;14.32;;;1.30;90.80;;;;;;5035246;28;20025;-96
2021/01/16 07:57:31;;;;;;;26.17;14.40;;;1.40;90.80;;;;;;5032599;28;20025;-95
2021/01/16 08:00:04;;;;;;;27.20;14.35;;;1.30;90.80;;;;;;5023064;28;20097;-95
2021/01/16 08:02:32;;;;;;;25.77;14.43;;;1.30;90.80;;;;;;5026141;28;20040;-95
2021/01/16 08:05:04;;;;;;;25.52;14.25;;;1.40;90.80;;;;;;5031344;28;20375;-95
2021/01/16 08:08:06;;;;;;;28.90;15.18;;;1.40;90.80;;;;;;5048940;28;20033;-95
2021/01/16 08:10:33;;;;;;;25.75;13.70;;;1.40;90.80;;;;;;5039294;28;20096;-95
2021/01/16 08:13:05;;;;;;;24.02;13.20;;;1.40;90.80;;;;;;5047322;28;20021;-96
2021/01/16 08:15:31;;;;;;;24.48;13.82;;;1.40;90.70;;;;;;5036361;28;20038;-95
2021/01/16 08:18:02;;;;;;;25.35;13.82;;;1.40;90.70;;;;;;5044974;28;20557;-95
2021/01/16 08:20:35;;;;;;;24.77;13.38;;;1.50;90.70;;;;;;5036851;28;20026;-95
2021/01/16 08:23:03;;;;;;;23.08;12.88;;;1.50;90.70;;;;;;5020012;28;20029;-95
2021/01/16 08:25:30;;;;;;;29.75;14.55;;;1.50;90.70;;;;;;5028134;28;20036;-95
2021/01/16 08:27:58;;;;;;;26.02;14.77;;;1.60;90.70;;;;;;5033893;28;20028;-93
2021/01/16 08:30:26;;;;;;;28.67;14.88;;;1.60;90.70;;;;;;5032327;28;20418;-95
2021/01/16 08:32:56;;;;;;;24.13;13.15;;;1.60;90.60;;;;;;5027242;28;20022;-95
2021/01/16 08:35:30;;;;;;;23.27;13.35;;;1.60;90.60;;;;;;5035165;28;20107;-95
2021/01/16 08:38:15;;;;;;;27.70;15.23;;;1.60;90.60;;;;;;5042621;28;20022;-94
2021/01/16 08:40:42;;;;;;;25.10;13.23;;;1.70;90.60;;;;;;5052036;28;20052;-95
2021/01/16 08:43:08;;;;;;;30.90;13.88;;;1.60;90.50;;;;;;5038742;28;20025;-95
2021/01/16 08:45:34;;;;;;;27.67;13.70;;;1.70;90.50;;;;;;5028137;28;21303;-95
2021/01/16 08:48:01;;;;;;;24.80;14.05;;;1.80;90.50;;;;;;5030284;28;20111;-95
2021/01/16 08:50:32;;;;;;;25.30;14.82;;;1.80;90.50;;;;;;5030286;28;20073;-95
2021/01/16 08:52:58;;;;;;;29.10;14.80;;;1.80;90.40;;;;;;5044984;28;20044;-92
2021/01/16 08:55:28;;;;;;;24.52;14.73;;;1.80;90.40;;;;;;5023640;28;20124;-93
2021/01/16 08:58:08;;;;;;;29.60;14.10;;;1.90;90.40;;;;;;5028089;28;20034;-93
2021/01/16 09:00:38;;;;;;;27.48;15.25;;;1.90;90.30;;;;;;5026300;28;20029;-92
2021/01/16 09:03:12;;;;;;;25.00;13.80;;;1.90;90.50;;;;;;5033362;28;20026;-94
2021/01/16 09:05:38;;;;;;;23.88;13.75;;;1.90;90.20;;;;;;5032732;28;20033;-93
2021/01/16 09:08:18;;;;;;;24.05;13.60;;;1.90;90.20;;;;;;5037248;28;20033;-94
2021/01/16 09:10:44;;;;;;;25.23;13.05;;;2.00;90.10;;;;;;5032932;28;20041;-93
2021/01/16 09:13:29;;;;;;;26.88;14.10;;;2.00;90.10;;;;;;5017871;28;20025;-93
2021/01/16 09:15:56;;;;;;;33.53;15.90;;;2.00;90.00;;;;;;5028209;28;20025;-93
2021/01/16 09:18:23;;;;;;;23.13;13.05;;;2.00;90.00;;;;;;5024930;28;20050;-94
2021/01/16 09:20:51;;;;;;;24.45;14.65;;;2.00;90.00;;;;;;5024936;28;20470;-92
2021/01/16 09:23:20;;;;;;;30.33;14.80;;;2.00;89.90;;;;;;5026096;28;20033;-92
2021/01/16 09:26:07;;;;;;;27.65;14.32;;;2.00;89.80;;;;;;5029265;28;20026;-94
2021/01/16 09:28:52;;;;;;;24.00;13.48;;;2.00;89.80;;;;;;5031989;28;20504;-93
2021/01/16 09:31:30;;;;;;;22.83;13.27;;;2.10;89.60;;;;;;5028683;28;20065;-94
2021/01/16 09:34:13;;;;;;;22.30;12.88;;;2.00;89.50;;;;;;5028632;28;20133;-93
2021/01/16 09:36:49;;;;;;;24.50;13.85;;;2.10;89.50;;;;;;5032577;28;20383;-95
2021/01/16 09:39:16;;;;;;;26.52;13.95;;;2.10;89.40;;;;;;5030474;28;20033;-94
2021/01/16 09:41:42;;;;;;;25.05;13.95;;;2.10;89.30;;;;;;5033179;28;20033;-95
2021/01/16 09:44:07;;;;;;;26.55;14.30;;;2.10;89.10;;;;;;5029639;28;20018;-94
2021/01/16 09:46:38;;;;;;;26.08;13.40;;;2.20;89.00;;;;;;5023378;28;20029;-94
2021/01/16 09:49:06;;;;;;;25.58;14.35;;;2.10;89.50;;;;;;5047929;28;20092;-94
2021/01/16 09:51:34;;;;;;;26.55;15.50;;;2.20;88.90;;;;;;5018609;28;20030;-94
2021/01/16 09:54:13;;;;;;;25.30;13.95;;;2.20;88.50;;;;;;5027794;28;20032;-94
2021/01/16 09:56:43;;;;;;;28.05;14.85;;;2.30;88.50;;;;;;5048012;28;20536;-94
2021/01/16 09:59:12;;;;;;;25.85;14.50;;;2.30;88.20;;;;;;5027285;28;20084;-93
2021/01/16 10:01:40;;;;;;;28.73;14.95;;;2.30;87.90;;;;;;5033560;28;20017;-93
2021/01/16 10:04:21;;;;;;;27.98;15.05;;;2.30;87.80;;;;;;5045046;28;20429;-94
2021/01/16 10:06:48;;;;;;;27.77;15.48;;;2.40;87.60;;;;;;5028400;28;20090;-92
2021/01/16 10:09:21;;;;;;;26.58;14.98;;;2.40;87.60;;;;;;5030250;28;20517;-93
2021/01/16 10:11:47;;;;;;;26.88;15.35;;;2.40;87.30;;;;;;5028390;28;20025;-92
2021/01/16 10:14:18;;;;;;;29.25;15.68;;;2.40;87.10;;;;;;5027152;28;20159;-94
2021/01/16 10:16:48;;;;;;;30.83;15.07;;;2.50;86.90;;;;;;5027583;28;20029;-93
2021/01/16 10:19:16;;;;;;;29.42;15.55;;;2.50;86.70;;;;;;5029729;28;20029;-93
2021/01/16 10:21:54;;;;;;;31.15;16.02;;;2.50;86.50;;;;;;5027918;28;20179;-94
2021/01/16 10:24:20;;;;;;;27.75;14.80;;;2.60;86.30;;;;;;5045257;28;20064;-93
2021/01/16 10:26:47;;;;;;;29.75;16.48;;;2.60;86.00;;;;;;5024044;28;20032;-94
2021/01/16 10:29:42;;;;;;;26.98;15.13;;;2.60;85.60;;;;;;5028234;28;20054;-94
2021/01/16 10:32:22;;;;;;;25.95;14.20;;;2.60;85.10;;;;;;5035855;28;20060;-93
2021/01/16 10:34:49;;;;;;;26.23;14.57;;;2.60;85.00;;;;;;5019938;28;20025;-93
2021/01/16 10:37:17;;;;;;;27.88;15.10;;;2.60;84.60;;;;;;5026552;28;20025;-94
2021/01/16 10:39:48;;;;;;;28.33;15.20;;;2.70;84.50;;;;;;5027952;28;20029;-95
2021/01/16 10:42:18;;;;;;;26.92;13.85;;;2.70;84.40;;;;;;5042777;28;20064;-93
2021/01/16 10:44:47;;;;;;;28.75;14.73;;;2.70;84.20;;;;;;5020356;28;20064;-94
2021/01/16 10:47:30;;;;;;;26.90;13.98;;;2.80;84.10;;;;;;5029241;28;20544;-94
2021/01/16 10:50:03;;;;;;;25.63;13.27;;;2.80;84.00;;;;;;5022615;28;20033;-94
2021/01/16 10:52:29;;;;;;;25.27;12.98;;;2.80;83.50;;;;;;5026355;28;20025;-93
2021/01/16 10:54:59;;;;;;;26.33;13.98;;;2.80;83.40;;;;;;5028040;28;20025;-93
2021/01/16 10:57:38;;;;;;;26.42;13.50;;;2.80;83.20;;;;;;5039583;28;20025;-94
2021/01/16 11:00:09;;;;;;;25.67;14.20;;;2.90;83.00;;;;;;5021387;28;20025;-93
2021/01/16 11:02:41;;;;;;;22.33;12.05;;;2.90;82.90;;;;;;5031054;28;20029;-93
2021/01/16 11:05:15;;;;;;;22.65;12.52;;;3.00;83.00;;;;;;5027936;28;20048;-93
2021/01/16 11:07:43;;;;;;;22.20;11.98;;;3.10;82.50;;;;;;5029601;28;20057;-93
2021/01/16 11:10:10;;;;;;;20.08;11.27;;;3.10;82.20;;;;;;5029539;28;20044;-93
2021/01/16 11:12:37;;;;;;;21.77;11.23;;;3.20;82.00;;;;;;5043682;28;20017;-92
2021/01/16 11:15:24;;;;;;;23.85;13.05;;;3.20;81.50;;;;;;5052349;28;20554;-93
2021/01/16 11:17:56;;;;;;;20.58;11.10;;;3.20;81.30;;;;;;5050144;28;20032;-93
2021/01/16 11:20:26;;;;;;;21.20;10.77;;;3.20;81.20;;;;;;5035410;28;20018;-93
2021/01/16 11:23:18;;;;;;;19.00;9.88;;;3.20;81.30;;;;;;5035878;28;20033;-93
2021/01/16 11:25:49;;;;;;;19.77;10.02;;;3.20;80.90;;;;;;5050296;28;20524;-92
2021/01/16 11:28:24;;;;;;;15.55;9.30;;;3.30;80.40;;;;;;5030724;28;20030;-93
2021/01/16 11:31:11;;;;;;;21.67;10.32;;;3.30;80.30;;;;;;5034950;28;20115;-92
2021/01/16 11:33:41;;;;;;;18.10;8.50;;;3.30;80.30;;;;;;5033835;28;20037;-93
2021/01/16 11:36:13;;;;;;;15.18;8.07;;;3.30;79.40;;;;;;5031174;28;20045;-93
2021/01/16 11:38:46;;;;;;;18.92;8.88;;;3.30;79.30;;;;;;5034258;28;20021;-95
2021/01/16 11:41:13;;;;;;;19.40;8.93;;;3.30;79.30;;;;;;5032634;28;20563;-93
2021/01/16 11:43:40;;;;;;;15.32;8.80;;;3.40;79.00;;;;;;5047132;28;20417;-93
2021/01/16 11:46:10;;;;;;;18.15;9.15;;;3.30;78.80;;;;;;5028879;28;20433;-89
2021/01/16 11:48:36;;;;;;;18.70;9.15;;;3.30;78.70;;;;;;5029512;28;20033;-93
2021/01/16 11:51:17;;;;;;;18.45;9.10;;;3.30;77.60;;;;;;5032955;28;20029;-94
2021/01/16 11:53:50;;;;;;;17.92;9.15;;;3.30;77.70;;;;;;5039677;28;20021;-92
2021/01/16 11:56:18;;;;;;;15.32;8.70;;;3.30;78.00;;;;;;5039326;28;20033;-93
2021/01/16 11:58:44;;;;;;;17.27;8.07;;;3.30;77.70;;;;;;5032386;28;20037;-94
2021/01/16 12:01:14;;;;;;;12.55;7.68;;;3.40;77.40;;;;;;5031634;28;20026;-93
2021/01/16 12:03:41;;;;;;;14.25;7.53;;;3.40;77.00;;;;;;5028223;28;20025;-93
2021/01/16 12:06:15;;;;;;;14.68;8.05;;;3.30;76.90;;;;;;5027313;28;20379;-93
2021/01/16 12:08:48;;;;;;;14.82;8.13;;;3.30;77.10;;;;;;5034943;28;20025;-94
2021/01/16 12:11:15;;;;;;;15.00;8.07;;;3.30;77.10;;;;;;5042331;28;20272;-93
2021/01/16 12:13:49;;;;;;;18.95;8.82;;;3.30;76.60;;;;;;5039000;28;20055;-93
2021/01/16 12:16:14;;;;;;;14.80;8.32;;;3.30;76.60;;;;;;5033326;28;20155;-94
2021/01/16 12:18:41;;;;;;;14.15;7.72;;;3.30;76.90;;;;;;5027152;28;20127;-94
2021/01/16 12:21:09;;;;;;;15.15;9.05;;;3.30;76.10;;;;;;5025279;28;20018;-93
2021/01/16 12:23:46;;;;;;;14.95;8.95;;;3.30;76.50;;;;;;5035818;28;20034;-93
2021/01/16 12:26:16;;;;;;;13.45;7.38;;;3.30;76.50;;;;;;5021747;28;20112;-93
2021/01/16 12:28:50;;;;;;;12.90;7.30;;;3.30;76.40;;;;;;5034496;28;20036;-93
2021/01/16 12:31:23;;;;;;;14.07;7.20;;;3.30;75.80;;;;;;5033988;28;20056;-93
2021/01/16 12:33:50;;;;;;;13.40;7.13;;;3.30;75.20;;;;;;5034758;28;20113;-94
2021/01/16 12:36:17;;;;;;;12.95;7.38;;;3.20;75.10;;;;;;5032723;28;20558;-94
2021/01/16 12:38:52;;;;;;;12.05;7.15;;;3.20;75.10;;;;;;5051142;28;20052;-93
2021/01/16 12:41:22;;;;;;;10.95;6.18;;;3.20;75.50;;;;;;5027702;28;20084;-94
2021/01/16 12:43:49;;;;;;;13.32;6.57;;;3.20;75.20;;;;;;5031461;28;20033;-95
2021/01/16 12:46:16;;;;;;;12.35;6.43;;;3.20;75.20;;;;;;5042173;28;20058;-94
2021/01/16 12:48:43;;;;;;;11.73;6.60;;;3.10;74.60;;;;;;5026986;28;20033;-93
2021/01/16 12:51:09;;;;;;;14.95;7.13;;;3.00;74.70;;;;;;5051837;28;20025;-93